sensor_id;sensor_type;location;lat;lon;timestamp;P1;durP1;ratioP1;P2;durP2;ratioP2
44181;SDS011;30436;48.888;9.202;2022-07-06T00:01:22;3.70;;;1.75;;
44181;SDS011;30436;48.888;9.202;2022-07-06T00:03:48;2.53;;;1.70;;
44181;SDS011;30436;48.888;9.202;2022-07-06T00:06:13;1.65;;;1.48;;
44181;SDS011;30436;48.888;9.202;2022-07-06T00:08:41;3.00;;;1.70;;
44181;SDS011;30436;48.888;9.202;2022-07-06T00:11:07;2.10;;;1.70;;
44181;SDS011;30436;48.888;9.202;2022-07-06T00:13:33;2.05;;;1.58;;
44181;SDS011;30436;48.888;9.202;2022-07-06T00:15:58;2.13;;;1.80;;
44181;SDS011;30436;48.888;9.202;2022-07-06T00:18:24;3.90;;;1.83;;
44181;SDS011;30436;48.888;9.202;2022-07-06T00:20:50;3.38;;;1.90;;
44181;SDS011;30436;48.888;9.202;2022-07-06T00:23:15;2.22;;;1.88;;
44181;SDS011;30436;48.888;9.202;2022-07-06T00:25:41;2.95;;;1.63;;
44181;SDS011;30436;48.888;9.202;2022-07-06T00:28:07;2.03;;;1.60;;
44181;SDS011;30436;48.888;9.202;2022-07-06T00:30:32;4.43;;;1.77;;
44181;SDS011;30436;48.888;9.202;2022-07-06T00:32:58;3.63;;;1.80;;
44181;SDS011;30436;48.888;9.202;2022-07-06T00:35:24;4.70;;;1.63;;
44181;SDS011;30436;48.888;9.202;2022-07-06T00:37:50;3.28;;;1.67;;
44181;SDS011;30436;48.888;9.202;2022-07-06T00:40:16;4.40;;;1.70;;
44181;SDS011;30436;48.888;9.202;2022-07-06T00:42:44;3.00;;;1.70;;
44181;SDS011;30436;48.888;9.202;2022-07-06T00:45:11;3.67;;;1.75;;
44181;SDS011;30436;48.888;9.202;2022-07-06T00:47:38;2.75;;;1.73;;
44181;SDS011;30436;48.888;9.202;2022-07-06T00:50:05;2.00;;;1.70;;
44181;SDS011;30436;48.888;9.202;2022-07-06T00:52:39;1.75;;;1.58;;
44181;SDS011;30436;48.888;9.202;2022-07-06T00:55:10;4.10;;;2.00;;
44181;SDS011;30436;48.888;9.202;2022-07-06T00:57:36;3.00;;;1.88;;
44181;SDS011;30436;48.888;9.202;2022-07-06T01:00:06;5.35;;;1.77;;
44181;SDS011;30436;48.888;9.202;2022-07-06T01:02:35;6.40;;;1.70;;
44181;SDS011;30436;48.888;9.202;2022-07-06T01:05:02;4.10;;;1.83;;
44181;SDS011;30436;48.888;9.202;2022-07-06T01:07:30;2.22;;;1.52;;
44181;SDS011;30436;48.888;9.202;2022-07-06T01:09:56;2.97;;;1.70;;
44181;SDS011;30436;48.888;9.202;2022-07-06T01:12:22;2.80;;;1.67;;
44181;SDS011;30436;48.888;9.202;2022-07-06T01:14:49;2.53;;;1.50;;
44181;SDS011;30436;48.888;9.202;2022-07-06T01:17:15;1.42;;;1.30;;
44181;SDS011;30436;48.888;9.202;2022-07-06T01:19:43;2.70;;;1.73;;
44181;SDS011;30436;48.888;9.202;2022-07-06T01:22:09;3.78;;;1.95;;
44181;SDS011;30436;48.888;9.202;2022-07-06T01:24:36;1.75;;;1.60;;
44181;SDS011;30436;48.888;9.202;2022-07-06T01:27:06;5.00;;;1.70;;
44181;SDS011;30436;48.888;9.202;2022-07-06T01:29:33;2.63;;;1.80;;
44181;SDS011;30436;48.888;9.202;2022-07-06T01:31:59;2.35;;;1.73;;
44181;SDS011;30436;48.888;9.202;2022-07-06T01:34:25;2.13;;;1.67;;
44181;SDS011;30436;48.888;9.202;2022-07-06T01:36:52;1.40;;;1.30;;
44181;SDS011;30436;48.888;9.202;2022-07-06T01:39:18;3.25;;;1.60;;
44181;SDS011;30436;48.888;9.202;2022-07-06T01:41:44;3.97;;;1.83;;
44181;SDS011;30436;48.888;9.202;2022-07-06T01:44:10;4.30;;;1.90;;
44181;SDS011;30436;48.888;9.202;2022-07-06T01:46:37;3.35;;;1.77;;
44181;SDS011;30436;48.888;9.202;2022-07-06T01:49:03;5.55;;;1.90;;
44181;SDS011;30436;48.888;9.202;2022-07-06T01:51:30;2.67;;;1.55;;
44181;SDS011;30436;48.888;9.202;2022-07-06T01:53:57;3.70;;;1.83;;
44181;SDS011;30436;48.888;9.202;2022-07-06T01:56:24;4.30;;;1.40;;
44181;SDS011;30436;48.888;9.202;2022-07-06T01:58:53;5.20;;;2.00;;
44181;SDS011;30436;48.888;9.202;2022-07-06T02:01:20;3.13;;;1.70;;
44181;SDS011;30436;48.888;9.202;2022-07-06T02:03:46;2.13;;;1.67;;
44181;SDS011;30436;48.888;9.202;2022-07-06T02:06:13;1.77;;;1.63;;
44181;SDS011;30436;48.888;9.202;2022-07-06T02:08:39;6.18;;;1.80;;
44181;SDS011;30436;48.888;9.202;2022-07-06T02:11:06;3.33;;;1.60;;
44181;SDS011;30436;48.888;9.202;2022-07-06T02:13:35;3.60;;;1.80;;
44181;SDS011;30436;48.888;9.202;2022-07-06T02:16:04;1.70;;;1.58;;
44181;SDS011;30436;48.888;9.202;2022-07-06T02:18:30;3.78;;;1.88;;
44181;SDS011;30436;48.888;9.202;2022-07-06T02:20:56;4.55;;;1.65;;
44181;SDS011;30436;48.888;9.202;2022-07-06T02:23:21;4.65;;;1.90;;
44181;SDS011;30436;48.888;9.202;2022-07-06T02:25:49;3.10;;;1.70;;
44181;SDS011;30436;48.888;9.202;2022-07-06T02:28:15;3.55;;;1.60;;
44181;SDS011;30436;48.888;9.202;2022-07-06T02:30:40;3.40;;;1.80;;
44181;SDS011;30436;48.888;9.202;2022-07-06T02:33:06;2.60;;;1.70;;
44181;SDS011;30436;48.888;9.202;2022-07-06T02:35:32;2.20;;;1.63;;
44181;SDS011;30436;48.888;9.202;2022-07-06T02:37:59;2.27;;;1.57;;
44181;SDS011;30436;48.888;9.202;2022-07-06T02:40:25;3.15;;;1.52;;
44181;SDS011;30436;48.888;9.202;2022-07-06T02:42:50;2.83;;;1.77;;
44181;SDS011;30436;48.888;9.202;2022-07-06T02:45:17;3.03;;;1.73;;
44181;SDS011;30436;48.888;9.202;2022-07-06T02:47:43;5.13;;;1.80;;
44181;SDS011;30436;48.888;9.202;2022-07-06T02:50:09;2.33;;;1.60;;
44181;SDS011;30436;48.888;9.202;2022-07-06T02:52:34;3.00;;;1.80;;
44181;SDS011;30436;48.888;9.202;2022-07-06T02:55:01;3.45;;;1.65;;
44181;SDS011;30436;48.888;9.202;2022-07-06T02:57:27;3.40;;;1.87;;
44181;SDS011;30436;48.888;9.202;2022-07-06T02:59:53;2.10;;;1.70;;
44181;SDS011;30436;48.888;9.202;2022-07-06T03:02:19;4.03;;;1.50;;
44181;SDS011;30436;48.888;9.202;2022-07-06T03:04:45;2.50;;;1.80;;
44181;SDS011;30436;48.888;9.202;2022-07-06T03:07:12;4.23;;;2.40;;
44181;SDS011;30436;48.888;9.202;2022-07-06T03:09:38;2.53;;;1.90;;
44181;SDS011;30436;48.888;9.202;2022-07-06T03:12:04;2.37;;;1.80;;
44181;SDS011;30436;48.888;9.202;2022-07-06T03:14:32;3.27;;;1.90;;
44181;SDS011;30436;48.888;9.202;2022-07-06T03:16:58;6.80;;;1.93;;
44181;SDS011;30436;48.888;9.202;2022-07-06T03:19:24;4.30;;;1.93;;
44181;SDS011;30436;48.888;9.202;2022-07-06T03:21:50;2.97;;;1.77;;
44181;SDS011;30436;48.888;9.202;2022-07-06T03:24:16;5.57;;;2.30;;
44181;SDS011;30436;48.888;9.202;2022-07-06T03:26:42;3.20;;;1.80;;
44181;SDS011;30436;48.888;9.202;2022-07-06T03:29:07;4.70;;;2.00;;
44181;SDS011;30436;48.888;9.202;2022-07-06T03:31:33;4.57;;;1.67;;
44181;SDS011;30436;48.888;9.202;2022-07-06T03:34:00;3.40;;;1.90;;
44181;SDS011;30436;48.888;9.202;2022-07-06T03:36:27;3.93;;;1.60;;
44181;SDS011;30436;48.888;9.202;2022-07-06T03:38:53;3.77;;;1.93;;
44181;SDS011;30436;48.888;9.202;2022-07-06T03:41:20;2.03;;;1.80;;
44181;SDS011;30436;48.888;9.202;2022-07-06T03:43:46;2.30;;;1.97;;
44181;SDS011;30436;48.888;9.202;2022-07-06T03:46:12;4.67;;;1.90;;
44181;SDS011;30436;48.888;9.202;2022-07-06T03:48:38;2.77;;;1.80;;
44181;SDS011;30436;48.888;9.202;2022-07-06T03:51:05;7.25;;;2.10;;
44181;SDS011;30436;48.888;9.202;2022-07-06T03:53:31;4.30;;;2.07;;
44181;SDS011;30436;48.888;9.202;2022-07-06T03:55:57;4.82;;;1.98;;
44181;SDS011;30436;48.888;9.202;2022-07-06T03:58:41;4.70;;;1.95;;
44181;SDS011;30436;48.888;9.202;2022-07-06T04:01:07;2.45;;;2.03;;
44181;SDS011;30436;48.888;9.202;2022-07-06T04:03:33;2.27;;;2.07;;
44181;SDS011;30436;48.888;9.202;2022-07-06T04:05:59;3.70;;;1.98;;
44181;SDS011;30436;48.888;9.202;2022-07-06T04:08:24;3.77;;;2.10;;
44181;SDS011;30436;48.888;9.202;2022-07-06T04:10:55;4.73;;;2.27;;
44181;SDS011;30436;48.888;9.202;2022-07-06T04:13:21;3.80;;;2.10;;
44181;SDS011;30436;48.888;9.202;2022-07-06T04:15:47;4.47;;;2.20;;
44181;SDS011;30436;48.888;9.202;2022-07-06T04:18:14;3.37;;;2.43;;
44181;SDS011;30436;48.888;9.202;2022-07-06T04:20:46;4.10;;;2.22;;
44181;SDS011;30436;48.888;9.202;2022-07-06T04:23:12;4.63;;;2.30;;
44181;SDS011;30436;48.888;9.202;2022-07-06T04:25:38;3.80;;;2.10;;
44181;SDS011;30436;48.888;9.202;2022-07-06T04:28:04;3.87;;;2.53;;
44181;SDS011;30436;48.888;9.202;2022-07-06T04:30:32;5.73;;;2.40;;
44181;SDS011;30436;48.888;9.202;2022-07-06T04:32:59;5.30;;;2.40;;
44181;SDS011;30436;48.888;9.202;2022-07-06T04:35:27;2.70;;;2.10;;
44181;SDS011;30436;48.888;9.202;2022-07-06T04:37:54;2.83;;;2.20;;
44181;SDS011;30436;48.888;9.202;2022-07-06T04:40:21;4.90;;;2.20;;
44181;SDS011;30436;48.888;9.202;2022-07-06T04:42:50;4.67;;;2.40;;
44181;SDS011;30436;48.888;9.202;2022-07-06T04:45:16;3.23;;;2.47;;
44181;SDS011;30436;48.888;9.202;2022-07-06T04:47:42;4.00;;;2.27;;
44181;SDS011;30436;48.888;9.202;2022-07-06T04:50:09;5.17;;;2.20;;
44181;SDS011;30436;48.888;9.202;2022-07-06T04:52:36;2.97;;;2.33;;
44181;SDS011;30436;48.888;9.202;2022-07-06T04:55:02;3.93;;;2.40;;
44181;SDS011;30436;48.888;9.202;2022-07-06T04:57:30;3.80;;;2.47;;
44181;SDS011;30436;48.888;9.202;2022-07-06T04:59:57;3.73;;;2.30;;
44181;SDS011;30436;48.888;9.202;2022-07-06T05:02:23;4.07;;;2.30;;
44181;SDS011;30436;48.888;9.202;2022-07-06T05:04:50;3.17;;;2.10;;
44181;SDS011;30436;48.888;9.202;2022-07-06T05:07:17;2.60;;;2.30;;
44181;SDS011;30436;48.888;9.202;2022-07-06T05:09:43;3.03;;;2.20;;
44181;SDS011;30436;48.888;9.202;2022-07-06T05:12:09;3.20;;;2.23;;
44181;SDS011;30436;48.888;9.202;2022-07-06T05:14:35;4.00;;;2.73;;
44181;SDS011;30436;48.888;9.202;2022-07-06T05:17:03;3.97;;;2.33;;
44181;SDS011;30436;48.888;9.202;2022-07-06T05:19:29;6.80;;;2.43;;
44181;SDS011;30436;48.888;9.202;2022-07-06T05:21:55;9.40;;;3.13;;
44181;SDS011;30436;48.888;9.202;2022-07-06T05:24:21;3.87;;;2.00;;
44181;SDS011;30436;48.888;9.202;2022-07-06T05:26:47;4.60;;;2.27;;
44181;SDS011;30436;48.888;9.202;2022-07-06T05:29:13;2.63;;;2.17;;
44181;SDS011;30436;48.888;9.202;2022-07-06T05:31:39;3.57;;;1.97;;
44181;SDS011;30436;48.888;9.202;2022-07-06T05:34:05;5.10;;;2.50;;
44181;SDS011;30436;48.888;9.202;2022-07-06T05:36:32;6.67;;;2.53;;
44181;SDS011;30436;48.888;9.202;2022-07-06T05:38:58;4.23;;;2.10;;
44181;SDS011;30436;48.888;9.202;2022-07-06T05:41:23;5.87;;;2.30;;
44181;SDS011;30436;48.888;9.202;2022-07-06T05:43:49;3.77;;;2.60;;
44181;SDS011;30436;48.888;9.202;2022-07-06T05:46:15;4.40;;;2.13;;
44181;SDS011;30436;48.888;9.202;2022-07-06T05:48:41;3.83;;;2.00;;
44181;SDS011;30436;48.888;9.202;2022-07-06T05:51:25;3.63;;;2.03;;
44181;SDS011;30436;48.888;9.202;2022-07-06T05:53:52;4.47;;;2.07;;
44181;SDS011;30436;48.888;9.202;2022-07-06T05:56:18;8.13;;;2.30;;
44181;SDS011;30436;48.888;9.202;2022-07-06T05:58:45;2.67;;;2.07;;
44181;SDS011;30436;48.888;9.202;2022-07-06T06:01:11;5.97;;;1.97;;
44181;SDS011;30436;48.888;9.202;2022-07-06T06:03:39;4.77;;;2.10;;
44181;SDS011;30436;48.888;9.202;2022-07-06T06:06:05;4.53;;;2.20;;
44181;SDS011;30436;48.888;9.202;2022-07-06T06:08:31;2.53;;;2.00;;
44181;SDS011;30436;48.888;9.202;2022-07-06T06:10:59;3.60;;;2.00;;
44181;SDS011;30436;48.888;9.202;2022-07-06T06:13:27;3.60;;;2.00;;
44181;SDS011;30436;48.888;9.202;2022-07-06T06:15:52;5.40;;;2.33;;
44181;SDS011;30436;48.888;9.202;2022-07-06T06:18:18;3.73;;;2.37;;
44181;SDS011;30436;48.888;9.202;2022-07-06T06:20:44;4.83;;;2.43;;
44181;SDS011;30436;48.888;9.202;2022-07-06T06:23:11;3.73;;;2.00;;
44181;SDS011;30436;48.888;9.202;2022-07-06T06:25:37;2.67;;;1.87;;
44181;SDS011;30436;48.888;9.202;2022-07-06T06:28:04;3.47;;;2.30;;
44181;SDS011;30436;48.888;9.202;2022-07-06T06:30:31;4.87;;;2.30;;
44181;SDS011;30436;48.888;9.202;2022-07-06T06:33:07;5.07;;;2.57;;
44181;SDS011;30436;48.888;9.202;2022-07-06T06:35:33;6.87;;;2.40;;
44181;SDS011;30436;48.888;9.202;2022-07-06T06:37:59;4.50;;;2.37;;
44181;SDS011;30436;48.888;9.202;2022-07-06T06:40:25;2.80;;;2.10;;
44181;SDS011;30436;48.888;9.202;2022-07-06T06:42:50;4.17;;;2.13;;
44181;SDS011;30436;48.888;9.202;2022-07-06T06:45:19;5.23;;;2.33;;
44181;SDS011;30436;48.888;9.202;2022-07-06T06:48:03;7.23;;;2.40;;
44181;SDS011;30436;48.888;9.202;2022-07-06T06:50:29;2.87;;;2.00;;
44181;SDS011;30436;48.888;9.202;2022-07-06T06:52:55;3.23;;;2.20;;
44181;SDS011;30436;48.888;9.202;2022-07-06T06:55:20;4.50;;;2.27;;
44181;SDS011;30436;48.888;9.202;2022-07-06T06:57:46;4.50;;;2.20;;
44181;SDS011;30436;48.888;9.202;2022-07-06T07:00:12;3.70;;;2.00;;
44181;SDS011;30436;48.888;9.202;2022-07-06T07:02:39;5.20;;;2.43;;
44181;SDS011;30436;48.888;9.202;2022-07-06T07:05:05;4.17;;;2.10;;
44181;SDS011;30436;48.888;9.202;2022-07-06T07:07:31;3.30;;;2.00;;
44181;SDS011;30436;48.888;9.202;2022-07-06T07:09:58;4.43;;;2.20;;
44181;SDS011;30436;48.888;9.202;2022-07-06T07:12:23;4.97;;;2.10;;
44181;SDS011;30436;48.888;9.202;2022-07-06T07:14:49;3.60;;;2.23;;
44181;SDS011;30436;48.888;9.202;2022-07-06T07:17:15;3.93;;;2.30;;
44181;SDS011;30436;48.888;9.202;2022-07-06T07:19:41;7.47;;;2.60;;
44181;SDS011;30436;48.888;9.202;2022-07-06T07:22:07;4.20;;;2.03;;
44181;SDS011;30436;48.888;9.202;2022-07-06T07:24:32;5.83;;;2.10;;
44181;SDS011;30436;48.888;9.202;2022-07-06T07:26:58;2.87;;;1.93;;
44181;SDS011;30436;48.888;9.202;2022-07-06T07:29:24;5.57;;;2.30;;
44181;SDS011;30436;48.888;9.202;2022-07-06T07:31:49;2.20;;;1.97;;
44181;SDS011;30436;48.888;9.202;2022-07-06T07:34:15;6.13;;;2.10;;
44181;SDS011;30436;48.888;9.202;2022-07-06T07:36:42;3.33;;;2.10;;
44181;SDS011;30436;48.888;9.202;2022-07-06T07:39:07;5.17;;;2.10;;
44181;SDS011;30436;48.888;9.202;2022-07-06T07:41:33;6.53;;;2.50;;
44181;SDS011;30436;48.888;9.202;2022-07-06T07:43:59;3.83;;;2.30;;
44181;SDS011;30436;48.888;9.202;2022-07-06T07:46:25;3.00;;;2.17;;
44181;SDS011;30436;48.888;9.202;2022-07-06T07:48:50;4.33;;;2.60;;
44181;SDS011;30436;48.888;9.202;2022-07-06T07:51:17;4.50;;;2.10;;
44181;SDS011;30436;48.888;9.202;2022-07-06T07:53:44;3.47;;;2.10;;
44181;SDS011;30436;48.888;9.202;2022-07-06T07:56:10;4.20;;;1.90;;
44181;SDS011;30436;48.888;9.202;2022-07-06T07:58:36;3.90;;;2.20;;
44181;SDS011;30436;48.888;9.202;2022-07-06T08:01:02;2.37;;;1.90;;
44181;SDS011;30436;48.888;9.202;2022-07-06T08:03:29;4.63;;;2.10;;
44181;SDS011;30436;48.888;9.202;2022-07-06T08:05:56;6.33;;;2.77;;
44181;SDS011;30436;48.888;9.202;2022-07-06T08:08:22;8.13;;;2.20;;
44181;SDS011;30436;48.888;9.202;2022-07-06T08:10:48;3.05;;;1.80;;
44181;SDS011;30436;48.888;9.202;2022-07-06T08:13:13;2.27;;;2.03;;
44181;SDS011;30436;48.888;9.202;2022-07-06T08:15:40;2.20;;;2.00;;
44181;SDS011;30436;48.888;9.202;2022-07-06T08:18:06;3.90;;;2.13;;
44181;SDS011;30436;48.888;9.202;2022-07-06T08:20:32;4.67;;;2.27;;
44181;SDS011;30436;48.888;9.202;2022-07-06T08:22:58;3.72;;;2.55;;
44181;SDS011;30436;48.888;9.202;2022-07-06T08:25:24;2.20;;;1.95;;
44181;SDS011;30436;48.888;9.202;2022-07-06T08:27:49;5.25;;;1.90;;
44181;SDS011;30436;48.888;9.202;2022-07-06T08:30:15;3.80;;;2.22;;
44181;SDS011;30436;48.888;9.202;2022-07-06T08:32:41;4.13;;;1.70;;
44181;SDS011;30436;48.888;9.202;2022-07-06T08:35:07;2.30;;;1.60;;
44181;SDS011;30436;48.888;9.202;2022-07-06T08:37:34;3.78;;;1.95;;
44181;SDS011;30436;48.888;9.202;2022-07-06T08:39:59;3.28;;;2.05;;
44181;SDS011;30436;48.888;9.202;2022-07-06T08:42:27;3.63;;;1.90;;
44181;SDS011;30436;48.888;9.202;2022-07-06T08:44:58;2.97;;;2.20;;
44181;SDS011;30436;48.888;9.202;2022-07-06T08:47:24;2.80;;;1.92;;
44181;SDS011;30436;48.888;9.202;2022-07-06T08:49:53;4.80;;;2.00;;
44181;SDS011;30436;48.888;9.202;2022-07-06T08:52:19;3.55;;;2.15;;
44181;SDS011;30436;48.888;9.202;2022-07-06T08:54:47;6.22;;;1.88;;
44181;SDS011;30436;48.888;9.202;2022-07-06T08:57:13;3.25;;;2.17;;
44181;SDS011;30436;48.888;9.202;2022-07-06T08:59:39;5.68;;;2.10;;
44181;SDS011;30436;48.888;9.202;2022-07-06T09:02:05;3.08;;;2.17;;
44181;SDS011;30436;48.888;9.202;2022-07-06T09:04:32;7.78;;;2.53;;
44181;SDS011;30436;48.888;9.202;2022-07-06T09:06:59;3.30;;;2.03;;
44181;SDS011;30436;48.888;9.202;2022-07-06T09:09:24;4.22;;;1.92;;
44181;SDS011;30436;48.888;9.202;2022-07-06T09:11:51;3.60;;;2.05;;
44181;SDS011;30436;48.888;9.202;2022-07-06T09:14:17;6.57;;;2.13;;
44181;SDS011;30436;48.888;9.202;2022-07-06T09:16:44;3.33;;;2.05;;
44181;SDS011;30436;48.888;9.202;2022-07-06T09:19:11;4.40;;;2.20;;
44181;SDS011;30436;48.888;9.202;2022-07-06T09:21:37;4.05;;;2.17;;
44181;SDS011;30436;48.888;9.202;2022-07-06T09:24:11;4.97;;;2.28;;
44181;SDS011;30436;48.888;9.202;2022-07-06T09:26:38;4.28;;;2.50;;
44181;SDS011;30436;48.888;9.202;2022-07-06T09:29:06;4.80;;;2.00;;
44181;SDS011;30436;48.888;9.202;2022-07-06T09:31:32;3.15;;;2.08;;
44181;SDS011;30436;48.888;9.202;2022-07-06T09:33:59;2.60;;;1.80;;
44181;SDS011;30436;48.888;9.202;2022-07-06T09:36:46;4.50;;;1.88;;
44181;SDS011;30436;48.888;9.202;2022-07-06T09:39:24;9.10;;;2.20;;
44181;SDS011;30436;48.888;9.202;2022-07-06T09:41:52;4.18;;;2.40;;
44181;SDS011;30436;48.888;9.202;2022-07-06T09:44:23;3.13;;;2.30;;
44181;SDS011;30436;48.888;9.202;2022-07-06T09:46:51;2.45;;;1.75;;
44181;SDS011;30436;48.888;9.202;2022-07-06T09:49:18;4.50;;;2.05;;
44181;SDS011;30436;48.888;9.202;2022-07-06T09:51:46;2.70;;;1.85;;
44181;SDS011;30436;48.888;9.202;2022-07-06T09:54:14;4.93;;;2.30;;
44181;SDS011;30436;48.888;9.202;2022-07-06T09:56:41;3.88;;;2.10;;
44181;SDS011;30436;48.888;9.202;2022-07-06T09:59:09;5.40;;;2.03;;
44181;SDS011;30436;48.888;9.202;2022-07-06T10:01:36;3.65;;;1.80;;
44181;SDS011;30436;48.888;9.202;2022-07-06T10:04:03;7.97;;;1.92;;
44181;SDS011;30436;48.888;9.202;2022-07-06T10:06:30;3.05;;;1.90;;
44181;SDS011;30436;48.888;9.202;2022-07-06T10:08:57;4.57;;;2.03;;
44181;SDS011;30436;48.888;9.202;2022-07-06T10:11:24;4.10;;;1.83;;
44181;SDS011;30436;48.888;9.202;2022-07-06T10:13:50;2.80;;;1.77;;
44181;SDS011;30436;48.888;9.202;2022-07-06T10:16:24;4.47;;;2.10;;
44181;SDS011;30436;48.888;9.202;2022-07-06T10:18:50;4.00;;;2.03;;
44181;SDS011;30436;48.888;9.202;2022-07-06T10:21:20;3.08;;;1.88;;
44181;SDS011;30436;48.888;9.202;2022-07-06T10:23:47;3.72;;;2.03;;
44181;SDS011;30436;48.888;9.202;2022-07-06T10:26:14;6.10;;;1.90;;
44181;SDS011;30436;48.888;9.202;2022-07-06T10:28:41;2.60;;;1.90;;
44181;SDS011;30436;48.888;9.202;2022-07-06T10:31:07;2.08;;;1.70;;
44181;SDS011;30436;48.888;9.202;2022-07-06T10:33:34;2.10;;;1.73;;
44181;SDS011;30436;48.888;9.202;2022-07-06T10:36:01;3.90;;;2.30;;
44181;SDS011;30436;48.888;9.202;2022-07-06T10:38:31;4.53;;;2.05;;
44181;SDS011;30436;48.888;9.202;2022-07-06T10:41:02;3.70;;;1.80;;
44181;SDS011;30436;48.888;9.202;2022-07-06T10:45:59;2.88;;;1.83;;
44181;SDS011;30436;48.888;9.202;2022-07-06T10:48:24;5.63;;;1.90;;
44181;SDS011;30436;48.888;9.202;2022-07-06T10:50:59;3.45;;;2.38;;
44181;SDS011;30436;48.888;9.202;2022-07-06T10:53:36;7.32;;;2.13;;
44181;SDS011;30436;48.888;9.202;2022-07-06T10:56:06;3.72;;;1.90;;
44181;SDS011;30436;48.888;9.202;2022-07-06T11:01:05;2.42;;;1.67;;
44181;SDS011;30436;48.888;9.202;2022-07-06T11:05:59;3.85;;;1.80;;
44181;SDS011;30436;48.888;9.202;2022-07-06T11:08:48;2.63;;;1.80;;
44181;SDS011;30436;48.888;9.202;2022-07-06T11:11:22;3.63;;;1.95;;
44181;SDS011;30436;48.888;9.202;2022-07-06T11:14:06;3.40;;;2.15;;
44181;SDS011;30436;48.888;9.202;2022-07-06T11:24:10;4.20;;;1.83;;
44181;SDS011;30436;48.888;9.202;2022-07-06T11:26:40;4.15;;;2.25;;
44181;SDS011;30436;48.888;9.202;2022-07-06T11:29:08;6.07;;;2.20;;
44181;SDS011;30436;48.888;9.202;2022-07-06T11:31:36;3.22;;;1.90;;
44181;SDS011;30436;48.888;9.202;2022-07-06T11:34:04;3.42;;;1.90;;
44181;SDS011;30436;48.888;9.202;2022-07-06T11:36:31;4.13;;;2.05;;
44181;SDS011;30436;48.888;9.202;2022-07-06T11:38:57;3.83;;;2.00;;
44181;SDS011;30436;48.888;9.202;2022-07-06T11:41:23;5.30;;;2.17;;
44181;SDS011;30436;48.888;9.202;2022-07-06T11:43:49;2.97;;;1.92;;
44181;SDS011;30436;48.888;9.202;2022-07-06T11:46:26;3.92;;;2.30;;
44181;SDS011;30436;48.888;9.202;2022-07-06T11:48:57;4.00;;;2.10;;
44181;SDS011;30436;48.888;9.202;2022-07-06T11:51:26;3.00;;;1.85;;
44181;SDS011;30436;48.888;9.202;2022-07-06T11:53:59;2.90;;;2.00;;
44181;SDS011;30436;48.888;9.202;2022-07-06T11:56:28;5.70;;;1.85;;
44181;SDS011;30436;48.888;9.202;2022-07-06T11:58:55;6.38;;;2.35;;
44181;SDS011;30436;48.888;9.202;2022-07-06T12:01:27;5.95;;;2.00;;
44181;SDS011;30436;48.888;9.202;2022-07-06T12:03:59;4.60;;;2.15;;
44181;SDS011;30436;48.888;9.202;2022-07-06T12:06:29;5.47;;;2.08;;
44181;SDS011;30436;48.888;9.202;2022-07-06T12:08:57;6.38;;;2.13;;
44181;SDS011;30436;48.888;9.202;2022-07-06T12:11:33;4.10;;;2.10;;
44181;SDS011;30436;48.888;9.202;2022-07-06T12:14:12;3.05;;;1.83;;
44181;SDS011;30436;48.888;9.202;2022-07-06T12:16:42;3.17;;;2.08;;
44181;SDS011;30436;48.888;9.202;2022-07-06T12:19:08;3.00;;;1.83;;
44181;SDS011;30436;48.888;9.202;2022-07-06T12:21:36;10.30;;;2.20;;
44181;SDS011;30436;48.888;9.202;2022-07-06T12:24:07;6.68;;;2.38;;
44181;SDS011;30436;48.888;9.202;2022-07-06T12:26:39;3.30;;;1.95;;
44181;SDS011;30436;48.888;9.202;2022-07-06T12:29:09;4.03;;;2.03;;
44181;SDS011;30436;48.888;9.202;2022-07-06T12:31:42;3.60;;;2.13;;
44181;SDS011;30436;48.888;9.202;2022-07-06T12:34:17;2.25;;;1.90;;
44181;SDS011;30436;48.888;9.202;2022-07-06T12:36:47;3.90;;;2.33;;
44181;SDS011;30436;48.888;9.202;2022-07-06T12:39:13;4.03;;;2.00;;
44181;SDS011;30436;48.888;9.202;2022-07-06T12:41:44;5.32;;;2.22;;
44181;SDS011;30436;48.888;9.202;2022-07-06T12:44:12;3.17;;;2.03;;
44181;SDS011;30436;48.888;9.202;2022-07-06T12:46:41;3.90;;;1.70;;
44181;SDS011;30436;48.888;9.202;2022-07-06T12:49:11;3.88;;;1.90;;
44181;SDS011;30436;48.888;9.202;2022-07-06T12:52:01;5.85;;;2.10;;
44181;SDS011;30436;48.888;9.202;2022-07-06T12:57:16;3.95;;;2.00;;
44181;SDS011;30436;48.888;9.202;2022-07-06T13:02:32;3.83;;;1.77;;
44181;SDS011;30436;48.888;9.202;2022-07-06T13:07:31;3.10;;;1.80;;
44181;SDS011;30436;48.888;9.202;2022-07-06T13:10:00;3.38;;;1.52;;
44181;SDS011;30436;48.888;9.202;2022-07-06T13:12:27;3.80;;;1.75;;
44181;SDS011;30436;48.888;9.202;2022-07-06T13:14:53;3.58;;;1.55;;
44181;SDS011;30436;48.888;9.202;2022-07-06T13:17:19;3.10;;;1.73;;
44181;SDS011;30436;48.888;9.202;2022-07-06T13:19:45;2.40;;;1.40;;
44181;SDS011;30436;48.888;9.202;2022-07-06T13:22:11;3.33;;;1.80;;
44181;SDS011;30436;48.888;9.202;2022-07-06T13:24:37;4.00;;;1.70;;
44181;SDS011;30436;48.888;9.202;2022-07-06T13:27:03;2.45;;;1.70;;
44181;SDS011;30436;48.888;9.202;2022-07-06T13:29:29;3.25;;;1.80;;
44181;SDS011;30436;48.888;9.202;2022-07-06T13:31:55;5.60;;;1.70;;
44181;SDS011;30436;48.888;9.202;2022-07-06T13:34:20;4.45;;;1.63;;
44181;SDS011;30436;48.888;9.202;2022-07-06T13:36:46;4.70;;;1.75;;
44181;SDS011;30436;48.888;9.202;2022-07-06T13:39:12;1.77;;;1.60;;
44181;SDS011;30436;48.888;9.202;2022-07-06T13:41:38;4.70;;;1.50;;
44181;SDS011;30436;48.888;9.202;2022-07-06T13:44:03;6.57;;;1.67;;
44181;SDS011;30436;48.888;9.202;2022-07-06T13:46:30;2.53;;;1.55;;
44181;SDS011;30436;48.888;9.202;2022-07-06T13:48:57;3.65;;;1.63;;
44181;SDS011;30436;48.888;9.202;2022-07-06T13:51:24;4.97;;;1.50;;
44181;SDS011;30436;48.888;9.202;2022-07-06T13:53:50;3.60;;;1.80;;
44181;SDS011;30436;48.888;9.202;2022-07-06T13:56:16;3.60;;;1.50;;
44181;SDS011;30436;48.888;9.202;2022-07-06T13:58:42;2.85;;;1.50;;
44181;SDS011;30436;48.888;9.202;2022-07-06T14:01:09;1.95;;;1.50;;
44181;SDS011;30436;48.888;9.202;2022-07-06T14:03:35;2.13;;;1.50;;
44181;SDS011;30436;48.888;9.202;2022-07-06T14:06:03;4.85;;;1.55;;
44181;SDS011;30436;48.888;9.202;2022-07-06T14:08:31;3.70;;;1.60;;
44181;SDS011;30436;48.888;9.202;2022-07-06T14:10:56;3.95;;;1.50;;
44181;SDS011;30436;48.888;9.202;2022-07-06T14:13:22;6.47;;;1.70;;
44181;SDS011;30436;48.888;9.202;2022-07-06T14:15:48;2.90;;;1.42;;
44181;SDS011;30436;48.888;9.202;2022-07-06T14:18:15;1.70;;;1.40;;
44181;SDS011;30436;48.888;9.202;2022-07-06T14:20:43;3.17;;;1.80;;
44181;SDS011;30436;48.888;9.202;2022-07-06T14:23:10;4.80;;;1.50;;
44181;SDS011;30436;48.888;9.202;2022-07-06T14:25:36;3.00;;;1.63;;
44181;SDS011;30436;48.888;9.202;2022-07-06T14:28:02;1.67;;;1.30;;
44181;SDS011;30436;48.888;9.202;2022-07-06T14:30:28;4.13;;;1.50;;
44181;SDS011;30436;48.888;9.202;2022-07-06T14:32:54;2.95;;;1.80;;
44181;SDS011;30436;48.888;9.202;2022-07-06T14:35:20;4.35;;;1.52;;
44181;SDS011;30436;48.888;9.202;2022-07-06T14:37:46;3.58;;;1.50;;
44181;SDS011;30436;48.888;9.202;2022-07-06T14:40:12;4.10;;;1.50;;
44181;SDS011;30436;48.888;9.202;2022-07-06T14:42:38;1.85;;;1.50;;
44181;SDS011;30436;48.888;9.202;2022-07-06T14:45:04;1.60;;;1.50;;
44181;SDS011;30436;48.888;9.202;2022-07-06T14:47:30;3.60;;;1.63;;
44181;SDS011;30436;48.888;9.202;2022-07-06T14:49:55;2.15;;;1.42;;
44181;SDS011;30436;48.888;9.202;2022-07-06T14:52:21;2.78;;;1.65;;
44181;SDS011;30436;48.888;9.202;2022-07-06T14:54:47;4.75;;;1.55;;
44181;SDS011;30436;48.888;9.202;2022-07-06T14:57:12;2.97;;;1.50;;
44181;SDS011;30436;48.888;9.202;2022-07-06T14:59:38;2.92;;;1.30;;
44181;SDS011;30436;48.888;9.202;2022-07-06T15:02:04;2.30;;;1.30;;
44181;SDS011;30436;48.888;9.202;2022-07-06T15:04:29;1.92;;;1.20;;
44181;SDS011;30436;48.888;9.202;2022-07-06T15:06:55;2.63;;;1.80;;
44181;SDS011;30436;48.888;9.202;2022-07-06T15:09:21;1.80;;;1.35;;
44181;SDS011;30436;48.888;9.202;2022-07-06T15:11:48;2.60;;;1.25;;